createdAt,value
2018-12-15T00:01:04.889Z,66.67
2018-12-15T00:03:34.145Z,66.48
2018-12-15T00:06:23.012Z,66.51
2018-12-15T00:08:52.279Z,66.74
2018-12-15T00:11:21.543Z,66.80
2018-12-15T00:13:50.796Z,66.90
2018-12-15T00:16:20.060Z,66.64
2018-12-15T00:19:08.923Z,66.63
2018-12-15T00:21:38.194Z,66.38
2018-12-15T00:24:07.440Z,66.53
2018-12-15T00:26:36.790Z,66.20
2018-12-15T00:29:06.045Z,66.17
2018-12-15T00:31:35.303Z,66.29
2018-12-15T00:34:04.546Z,66.52
2018-12-15T00:36:33.811Z,66.54
2018-12-15T00:41:52.337Z,66.64
2018-12-15T00:44:21.601Z,66.74
2018-12-15T00:47:13.949Z,66.73
2018-12-15T00:49:40.912Z,66.78
2018-12-15T00:52:10.168Z,66.52
2018-12-15T00:54:39.421Z,66.53
2018-12-15T00:57:08.691Z,66.61
2018-12-15T00:59:37.955Z,66.73
2018-12-15T01:02:07.218Z,66.83
2018-12-15T01:04:36.470Z,66.89
2018-12-15T01:07:05.732Z,66.83
2018-12-15T01:09:34.981Z,66.93
2018-12-15T01:12:04.246Z,66.68
2018-12-15T01:14:33.512Z,66.76
2018-12-15T01:17:02.805Z,66.74
2018-12-15T01:19:32.060Z,66.79
2018-12-15T01:22:01.325Z,66.64
2018-12-15T01:24:30.564Z,66.71
2018-12-15T01:26:59.829Z,66.77
2018-12-15T01:29:29.083Z,66.78
2018-12-15T01:31:58.358Z,66.76
2018-12-15T01:34:27.604Z,66.90
2018-12-15T01:36:56.872Z,66.70
2018-12-15T01:39:26.129Z,66.70
2018-12-15T01:41:55.381Z,66.83
2018-12-15T01:44:24.638Z,66.92
2018-12-15T01:46:53.911Z,66.95
2018-12-15T01:49:23.176Z,66.87
2018-12-15T01:51:52.489Z,66.89
2018-12-15T01:54:21.743Z,66.87
2018-12-15T01:56:51.017Z,66.95
2018-12-15T01:59:20.274Z,67.07
2018-12-15T02:01:49.539Z,66.97
2018-12-15T02:04:18.796Z,66.96
2018-12-15T02:06:48.063Z,66.94
2018-12-15T02:09:17.309Z,66.96
2018-12-15T02:11:46.579Z,67.02
2018-12-15T02:14:15.828Z,66.90
2018-12-15T02:16:45.089Z,66.66
2018-12-15T02:19:14.338Z,66.68
2018-12-15T02:21:43.607Z,66.67
2018-12-15T02:24:12.864Z,66.51
2018-12-15T02:27:01.722Z,66.53
2018-12-15T02:29:30.983Z,66.35
2018-12-15T02:32:00.253Z,66.38
2018-12-15T02:34:29.498Z,66.43
2018-12-15T02:36:58.762Z,66.39
2018-12-15T02:39:28.020Z,66.54
2018-12-15T02:41:57.285Z,66.68
2018-12-15T02:44:26.550Z,66.40
2018-12-15T02:46:55.808Z,66.30
2018-12-15T02:49:25.052Z,66.24
2018-12-15T02:51:54.315Z,65.93
2018-12-15T02:54:23.571Z,65.97
2018-12-15T02:56:52.844Z,65.58
2018-12-15T02:59:22.108Z,65.78
2018-12-15T03:01:51.364Z,65.87
2018-12-15T03:04:20.622Z,65.50
2018-12-15T03:06:49.872Z,65.60
2018-12-15T03:09:19.134Z,65.74
2018-12-15T03:11:48.392Z,65.54
2018-12-15T03:14:17.697Z,65.54
2018-12-15T03:17:08.823Z,65.60
2018-12-15T03:19:38.090Z,65.65
2018-12-15T03:22:07.356Z,65.26
2018-12-15T03:24:36.615Z,65.63
2018-12-15T03:27:05.867Z,65.86
2018-12-15T03:29:35.136Z,65.96
2018-12-15T03:32:04.391Z,65.99
2018-12-15T03:34:33.651Z,66.15
2018-12-15T03:37:02.978Z,66.40
2018-12-15T03:39:32.243Z,66.62
2018-12-15T03:42:01.496Z,66.87
2018-12-15T03:44:30.775Z,66.93
2018-12-15T03:47:00.023Z,66.99
2018-12-15T03:49:29.307Z,66.84
2018-12-15T03:51:58.551Z,66.89
2018-12-15T03:54:27.832Z,66.99
2018-12-15T03:56:57.129Z,67.02
2018-12-15T04:02:02.042Z,67.12
2018-12-15T04:07:07.006Z,67.63
2018-12-15T04:09:36.273Z,67.71
2018-12-15T04:12:05.523Z,67.90
2018-12-15T04:14:34.801Z,68.14
2018-12-15T04:17:04.121Z,68.30
2018-12-15T04:19:33.380Z,68.57
2018-12-15T04:22:21.718Z,68.63
2018-12-15T04:24:50.987Z,68.72
2018-12-15T04:27:20.255Z,68.64
2018-12-15T04:29:49.518Z,68.75
2018-12-15T04:32:18.802Z,68.76
2018-12-15T04:34:48.046Z,68.93
2018-12-15T04:37:17.304Z,68.96
2018-12-15T04:39:46.578Z,69.00
2018-12-15T04:42:15.827Z,69.00
2018-12-15T04:44:45.102Z,69.17
2018-12-15T04:50:03.651Z,69.29
2018-12-15T04:52:32.892Z,69.23
2018-12-15T04:55:02.211Z,69.30
2018-12-15T04:57:31.430Z,69.38
2018-12-15T05:00:00.704Z,69.33
2018-12-15T05:02:29.969Z,69.41
2018-12-15T05:05:18.293Z,69.37
2018-12-15T05:07:47.559Z,69.42
2018-12-15T05:10:16.830Z,69.46
2018-12-15T05:12:46.087Z,69.75
2018-12-15T05:15:15.373Z,69.80
2018-12-15T05:17:44.632Z,69.87
2018-12-15T05:20:13.913Z,69.97
2018-12-15T05:23:02.770Z,70.25
2018-12-15T05:25:32.044Z,70.12
2018-12-15T05:28:01.313Z,70.24
2018-12-15T05:30:30.583Z,70.43
2018-12-15T05:32:59.852Z,70.51
2018-12-15T05:35:29.124Z,70.44
2018-12-15T05:37:58.379Z,70.51
2018-12-15T05:40:27.659Z,70.66
2018-12-15T05:42:56.916Z,70.68
2018-12-15T05:45:26.187Z,70.78
2018-12-15T05:47:55.452Z,70.81
2018-12-15T05:50:24.708Z,70.78
2018-12-15T05:52:53.984Z,70.71
2018-12-15T05:55:23.248Z,70.61
2018-12-15T05:57:52.518Z,70.63
2018-12-15T06:00:21.781Z,70.78
2018-12-15T06:02:51.058Z,70.95
2018-12-15T06:08:09.603Z,71.11
2018-12-15T06:10:38.864Z,71.27
2018-12-15T06:13:08.137Z,71.50
2018-12-15T06:15:37.389Z,71.64
2018-12-15T06:18:06.654Z,71.62
2018-12-15T06:20:35.916Z,71.67
2018-12-15T06:23:05.186Z,71.72
2018-12-15T06:25:54.316Z,71.82
2018-12-15T06:28:23.592Z,71.93
2018-12-15T06:33:41.225Z,72.07
2018-12-15T06:36:10.499Z,72.16
2018-12-15T06:38:39.776Z,72.33
2018-12-15T06:41:09.033Z,72.44
2018-12-15T06:46:14.673Z,72.53
2018-12-15T06:48:43.943Z,72.46
2018-12-15T06:51:13.208Z,72.46
2018-12-15T06:53:42.482Z,72.63
2018-12-15T06:56:11.752Z,72.65
2018-12-15T06:58:41.025Z,72.77
2018-12-15T07:01:10.276Z,72.84
2018-12-15T07:03:39.540Z,72.85
2018-12-15T07:06:08.795Z,72.90
2018-12-15T07:11:12.494Z,72.84
2018-12-15T07:13:41.763Z,72.90
2018-12-15T07:16:30.901Z,73.03
2018-12-15T07:19:00.189Z,73.33
2018-12-15T07:21:29.441Z,73.13
2018-12-15T07:23:58.716Z,73.07
2018-12-15T07:26:27.981Z,73.05
2018-12-15T07:28:57.255Z,72.94
2018-12-15T07:31:26.508Z,72.95
2018-12-15T07:33:55.774Z,73.00
2018-12-15T07:36:25.036Z,72.91
2018-12-15T07:38:54.342Z,72.76
2018-12-15T07:41:23.601Z,72.84
2018-12-15T07:43:52.871Z,72.90
2018-12-15T07:46:22.134Z,73.07
2018-12-15T07:48:51.625Z,73.02
2018-12-15T07:51:21.570Z,73.10
2018-12-15T07:53:50.853Z,73.18
2018-12-15T07:59:09.393Z,73.18
2018-12-15T08:01:38.661Z,73.06
2018-12-15T08:04:07.937Z,73.25
2018-12-15T08:06:37.204Z,73.45
2018-12-15T08:09:07.696Z,73.30
2018-12-15T08:11:55.685Z,73.26
2018-12-15T08:14:25.039Z,73.30
2018-12-15T08:16:54.299Z,73.33
2018-12-15T08:19:23.569Z,73.21
2018-12-15T08:21:52.854Z,73.30
2018-12-15T08:24:22.125Z,73.25
2018-12-15T08:26:51.397Z,73.22
2018-12-15T08:29:39.721Z,72.92
2018-12-15T08:32:08.992Z,72.66
2018-12-15T08:34:38.265Z,72.94
2018-12-15T08:37:07.534Z,72.79
2018-12-15T08:39:36.813Z,72.90
2018-12-15T08:42:06.070Z,72.79
2018-12-15T08:44:35.348Z,73.07
2018-12-15T08:47:04.699Z,72.97
2018-12-15T08:49:33.975Z,73.00
2018-12-15T08:52:03.252Z,73.12
2018-12-15T08:54:32.529Z,73.03
2018-12-15T08:57:01.785Z,72.98
2018-12-15T08:59:31.069Z,73.01
2018-12-15T09:02:00.338Z,72.77
2018-12-15T09:04:29.610Z,72.98
2018-12-15T09:06:58.864Z,72.81
2018-12-15T09:09:28.146Z,72.94
2018-12-15T09:11:57.411Z,72.59
2018-12-15T09:14:26.693Z,72.64
2018-12-15T09:16:55.938Z,72.64
2018-12-15T09:19:25.251Z,72.55
2018-12-15T09:21:54.501Z,72.74
2018-12-15T09:24:23.782Z,72.34
2018-12-15T09:26:53.069Z,72.19
2018-12-15T09:29:22.328Z,72.12
2018-12-15T09:31:51.608Z,72.18
2018-12-15T09:34:20.873Z,72.10
2018-12-15T09:36:50.169Z,72.10
2018-12-15T09:39:19.430Z,71.59
2018-12-15T09:41:48.694Z,71.57
2018-12-15T09:44:17.956Z,71.50
2018-12-15T09:46:47.247Z,71.75
2018-12-15T09:49:17.937Z,71.68
2018-12-15T09:51:46.705Z,71.82
2018-12-15T09:54:15.966Z,71.71
2018-12-15T09:56:45.243Z,71.20
2018-12-15T09:59:14.493Z,71.31
2018-12-15T10:01:43.764Z,71.11
2018-12-15T10:04:13.043Z,71.24
2018-12-15T10:06:43.780Z,70.61
2018-12-15T10:09:14.401Z,70.39
2018-12-15T10:11:45.352Z,70.42
2018-12-15T10:14:15.531Z,70.76
2018-12-15T10:16:45.765Z,70.69
2018-12-15T10:19:15.888Z,69.84
2018-12-15T10:21:46.062Z,69.68
2018-12-15T10:24:16.241Z,69.50
2018-12-15T10:26:46.380Z,68.65
2018-12-15T10:29:35.064Z,68.83
2018-12-15T10:32:42.448Z,67.86
2018-12-15T10:35:12.576Z,67.82
2018-12-15T10:37:42.855Z,67.54
2018-12-15T10:40:12.931Z,67.72
2018-12-15T10:42:43.023Z,67.85
2018-12-15T10:45:13.051Z,67.20
2018-12-15T10:47:43.221Z,67.10
2018-12-15T10:50:32.190Z,66.68
2018-12-15T10:55:44.690Z,66.29
2018-12-15T10:58:34.509Z,66.38
2018-12-15T11:01:24.325Z,66.43
2018-12-15T11:04:00.666Z,65.68
2018-12-15T11:06:45.247Z,65.63
2018-12-15T11:09:15.380Z,65.13
2018-12-15T11:11:45.833Z,65.23
2018-12-15T11:14:16.058Z,65.57
2018-12-15T11:16:46.036Z,65.69
2018-12-15T11:19:15.984Z,64.66
2018-12-15T11:21:46.375Z,64.26
2018-12-15T11:24:16.493Z,64.52
2018-12-15T11:26:46.599Z,64.01
2018-12-15T11:29:16.810Z,64.36
2018-12-15T11:31:47.224Z,63.63
2018-12-15T11:34:17.670Z,63.56
2018-12-15T11:36:47.729Z,62.99
2018-12-15T11:39:18.072Z,63.48
2018-12-15T11:41:48.247Z,63.51
2018-12-15T11:44:18.488Z,63.51
2018-12-15T11:46:48.607Z,63.18
2018-12-15T11:49:18.702Z,62.67
2018-12-15T11:51:48.513Z,62.95
2018-12-15T11:54:24.951Z,62.54
2018-12-15T11:56:54.204Z,62.12
2018-12-15T11:59:23.473Z,60.76
2018-12-15T12:01:53.200Z,61.40
2018-12-15T12:04:22.913Z,61.77
2018-12-15T12:06:52.177Z,61.36
2018-12-15T12:09:21.444Z,60.62
2018-12-15T12:11:50.728Z,61.16
2018-12-15T12:14:19.998Z,60.88
2018-12-15T12:16:49.255Z,60.11
2018-12-15T12:19:18.528Z,60.61
2018-12-15T12:21:47.779Z,60.01
2018-12-15T12:24:17.042Z,60.59
2018-12-15T12:26:46.297Z,60.62
2018-12-15T12:29:15.569Z,60.64
2018-12-15T12:31:44.821Z,59.52
2018-12-15T12:34:14.112Z,59.69
2018-12-15T12:36:43.363Z,59.67
2018-12-15T12:39:32.239Z,59.52
2018-12-15T12:42:01.506Z,58.94
2018-12-15T12:44:30.770Z,59.23
2018-12-15T12:47:00.029Z,59.30
2018-12-15T12:49:29.301Z,59.61
2018-12-15T12:51:58.543Z,59.67
2018-12-15T12:54:27.805Z,58.82
2018-12-15T12:56:57.127Z,58.52
2018-12-15T12:59:26.393Z,58.99
2018-12-15T13:01:55.650Z,58.96
2018-12-15T13:04:24.920Z,58.75
2018-12-15T13:06:54.190Z,58.83
2018-12-15T13:09:23.473Z,58.95
2018-12-15T13:11:52.727Z,58.42
2018-12-15T13:14:21.986Z,58.72
2018-12-15T13:16:51.250Z,57.51
2018-12-15T13:19:20.505Z,58.21
2018-12-15T13:21:49.779Z,57.98
2018-12-15T13:24:19.045Z,57.77
2018-12-15T13:26:48.322Z,57.36
2018-12-15T13:29:17.577Z,57.08
2018-12-15T13:31:46.848Z,56.91
2018-12-15T13:34:16.093Z,56.87
2018-12-15T13:36:45.375Z,56.94
2018-12-15T13:39:14.640Z,56.85
2018-12-15T13:41:43.912Z,56.78
2018-12-15T13:44:13.177Z,56.97
2018-12-15T13:46:42.447Z,57.29
2018-12-15T13:49:11.701Z,57.59
2018-12-15T13:51:40.986Z,57.31
2018-12-15T13:54:10.253Z,57.07
2018-12-15T13:56:39.521Z,56.19
2018-12-15T13:59:08.788Z,56.23
2018-12-15T14:01:38.056Z,56.81
2018-12-15T14:04:07.306Z,56.57
2018-12-15T14:06:36.568Z,56.69
2018-12-15T14:09:08.325Z,56.57
2018-12-15T14:11:37.607Z,56.66
2018-12-15T14:14:06.872Z,56.78
2018-12-15T14:16:36.139Z,56.86
2018-12-15T14:19:05.392Z,56.67
2018-12-15T14:21:34.648Z,56.29
2018-12-15T14:24:03.932Z,56.20
2018-12-15T14:26:33.211Z,56.37
2018-12-15T14:29:02.482Z,56.43
2018-12-15T14:31:31.751Z,56.64
2018-12-15T14:34:01.024Z,56.59
2018-12-15T14:36:30.293Z,56.69
2018-12-15T14:38:59.557Z,56.47
2018-12-15T14:41:28.897Z,56.55
2018-12-15T14:43:58.136Z,56.60
2018-12-15T14:46:27.408Z,56.65
2018-12-15T14:48:56.679Z,56.74
2018-12-15T14:51:25.972Z,56.89
2018-12-15T14:53:55.218Z,56.82
2018-12-15T14:56:24.501Z,56.95
2018-12-15T14:58:53.769Z,56.88
2018-12-15T15:01:23.061Z,57.04
2018-12-15T15:03:52.342Z,56.83
2018-12-15T15:06:21.609Z,56.96
2018-12-15T15:08:50.893Z,56.81
2018-12-15T15:11:20.139Z,56.75
2018-12-15T15:13:49.407Z,56.52
2018-12-15T15:16:18.660Z,56.64
2018-12-15T15:18:47.932Z,56.72
2018-12-15T15:21:17.176Z,56.19
2018-12-15T15:23:46.459Z,56.16
2018-12-15T15:26:15.714Z,55.72
2018-12-15T15:28:45.032Z,55.48
2018-12-15T15:31:14.237Z,55.70
2018-12-15T15:33:43.558Z,55.78
2018-12-15T15:36:12.951Z,56.01
2018-12-15T15:38:42.654Z,56.08
2018-12-15T15:41:12.200Z,56.20
2018-12-15T15:43:41.671Z,56.09
2018-12-15T15:46:11.162Z,55.97
2018-12-15T15:48:40.752Z,56.07
2018-12-15T15:51:10.192Z,56.16
2018-12-15T15:53:39.701Z,56.39
2018-12-15T15:56:09.171Z,56.17
2018-12-15T15:58:38.738Z,56.50
2018-12-15T16:01:08.184Z,56.44
2018-12-15T16:03:37.612Z,56.61
2018-12-15T16:06:07.026Z,56.61
2018-12-15T16:08:36.589Z,56.79
2018-12-15T16:11:05.934Z,56.95
2018-12-15T16:13:35.193Z,56.95
2018-12-15T16:16:24.570Z,56.97
2018-12-15T16:18:54.239Z,57.02
2018-12-15T16:21:23.586Z,57.06
2018-12-15T16:23:52.867Z,57.41
2018-12-15T16:26:22.118Z,57.53
2018-12-15T16:28:51.379Z,57.77
2018-12-15T16:31:20.629Z,58.04
2018-12-15T16:34:08.961Z,58.18
2018-12-15T16:36:38.281Z,58.37
2018-12-15T16:39:08.722Z,58.59
2018-12-15T16:41:42.190Z,58.87
2018-12-15T16:44:08.142Z,59.13
2018-12-15T16:46:37.403Z,59.23
2018-12-15T16:49:06.681Z,59.41
2018-12-15T16:51:35.931Z,59.76
2018-12-15T16:54:05.196Z,59.96
2018-12-15T16:56:34.456Z,59.98
2018-12-15T16:59:03.757Z,59.90
2018-12-15T17:01:33.034Z,60.41
2018-12-15T17:04:02.308Z,60.67
2018-12-15T17:06:31.598Z,60.68
2018-12-15T17:09:00.873Z,60.90
2018-12-15T17:11:30.128Z,61.01
2018-12-15T17:13:59.395Z,61.09
2018-12-15T17:16:28.642Z,61.21
2018-12-15T17:18:57.911Z,61.21
2018-12-15T17:21:27.166Z,61.35
2018-12-15T17:23:56.419Z,61.70
2018-12-15T17:26:25.682Z,61.74
2018-12-15T17:28:54.942Z,61.85
2018-12-15T17:31:43.259Z,62.01
2018-12-15T17:34:12.545Z,62.04
2018-12-15T17:36:41.804Z,62.11
2018-12-15T17:42:00.314Z,62.38
2018-12-15T17:44:29.575Z,62.25
2018-12-15T17:46:58.848Z,62.33
2018-12-15T17:49:28.104Z,62.34
2018-12-15T17:52:17.234Z,62.39
2018-12-15T17:54:46.509Z,62.52
2018-12-15T17:57:15.776Z,62.49
2018-12-15T17:59:45.033Z,62.59
2018-12-15T18:02:14.348Z,62.66
2018-12-15T18:04:43.609Z,62.45
2018-12-15T18:12:22.770Z,62.72
2018-12-15T18:14:52.020Z,62.79
2018-12-15T18:17:21.282Z,62.88
2018-12-15T18:19:50.526Z,62.92
2018-12-15T18:22:19.801Z,62.86
2018-12-15T18:24:49.082Z,62.89
2018-12-15T18:27:18.351Z,62.94
2018-12-15T18:30:07.203Z,62.87
2018-12-15T18:32:55.549Z,62.94
2018-12-15T18:35:24.811Z,62.89
2018-12-15T18:37:54.065Z,62.88
2018-12-15T18:40:23.335Z,62.82
2018-12-15T18:42:52.598Z,62.92
2018-12-15T18:45:21.859Z,62.98
2018-12-15T18:47:51.126Z,63.01
2018-12-15T18:50:20.391Z,63.22
2018-12-15T18:52:49.659Z,63.31
2018-12-15T18:55:18.916Z,63.26
2018-12-15T18:57:48.178Z,63.35
2018-12-15T19:00:17.434Z,63.50
2018-12-15T19:02:46.710Z,63.72
2018-12-15T19:08:04.354Z,64.01
2018-12-15T19:10:33.668Z,63.89
2018-12-15T19:13:02.869Z,63.95
2018-12-15T19:15:32.110Z,63.91
2018-12-15T19:18:01.373Z,63.88
2018-12-15T19:20:30.624Z,63.72
2018-12-15T19:22:59.885Z,63.57
2018-12-15T19:25:29.136Z,63.28
2018-12-15T19:27:58.394Z,63.18
2018-12-15T19:30:27.651Z,62.98
2018-12-15T19:32:56.912Z,63.06
2018-12-15T19:35:26.166Z,62.97
2018-12-15T19:37:55.426Z,62.63
2018-12-15T19:40:24.674Z,62.43
2018-12-15T19:42:53.938Z,62.55
2018-12-15T19:45:23.186Z,62.33
2018-12-15T19:47:52.452Z,62.28
2018-12-15T19:50:41.571Z,62.08
2018-12-15T19:53:10.860Z,62.01
2018-12-15T19:55:40.118Z,62.04
2018-12-15T19:58:09.374Z,62.19
2018-12-15T20:00:38.631Z,62.19
2018-12-15T20:03:07.897Z,61.89
2018-12-15T20:08:25.542Z,61.67
2018-12-15T20:13:43.183Z,61.53
2018-12-15T20:16:32.051Z,61.83
2018-12-15T20:19:01.305Z,61.70
2018-12-15T20:21:36.000Z,61.59
2018-12-15T20:24:00.732Z,61.41
2018-12-15T20:26:29.990Z,61.69
2018-12-15T20:28:59.245Z,61.79
2018-12-15T20:31:28.507Z,61.90
2018-12-15T20:33:57.782Z,61.79
2018-12-15T20:36:27.038Z,61.97
2018-12-15T20:38:56.298Z,61.99
2018-12-15T20:41:25.548Z,62.09
2018-12-15T20:43:54.814Z,62.24
2018-12-15T20:46:24.207Z,62.15
2018-12-15T20:48:53.472Z,62.17
2018-12-15T20:51:22.728Z,62.30
2018-12-15T20:53:51.991Z,62.33
2018-12-15T20:56:21.238Z,62.66
2018-12-15T20:58:50.562Z,62.72
2018-12-15T21:04:09.025Z,62.84
2018-12-15T21:06:38.280Z,62.88
2018-12-15T21:09:08.811Z,62.99
2018-12-15T21:14:26.442Z,63.07
2018-12-15T21:16:55.717Z,62.90
2018-12-15T21:22:13.363Z,63.01
2018-12-15T21:27:30.997Z,62.65
2018-12-15T21:30:00.245Z,62.83
2018-12-15T21:35:04.514Z,62.92
2018-12-15T21:37:33.782Z,63.10
2018-12-15T21:40:03.030Z,62.91
2018-12-15T21:45:06.796Z,62.83
2018-12-15T21:47:36.067Z,62.57
2018-12-15T21:50:06.067Z,62.46
2018-12-15T21:52:35.338Z,62.60
2018-12-15T21:55:04.594Z,62.87
2018-12-15T21:57:33.853Z,62.94
2018-12-15T22:00:03.199Z,62.74
2018-12-15T22:02:32.496Z,62.80
2018-12-15T22:05:01.747Z,62.72
2018-12-15T22:07:30.998Z,62.83
2018-12-15T22:10:00.266Z,62.73
2018-12-15T22:12:29.516Z,62.88
2018-12-15T22:14:58.783Z,62.96
2018-12-15T22:20:16.443Z,63.15
2018-12-15T22:22:45.772Z,63.18
2018-12-15T22:25:15.065Z,63.32
2018-12-15T22:27:44.320Z,63.40
2018-12-15T22:30:13.621Z,63.54
2018-12-15T22:35:31.275Z,63.73
2018-12-15T22:40:35.800Z,64.27
2018-12-15T22:43:05.065Z,64.36
2018-12-15T22:48:22.694Z,65.09
2018-12-15T22:53:40.362Z,66.00
2018-12-15T22:56:09.620Z,66.04
2018-12-15T22:58:38.883Z,66.67
2018-12-15T23:01:26.867Z,66.86
2018-12-15T23:03:56.135Z,66.63
2018-12-15T23:06:25.394Z,67.46
2018-12-15T23:08:54.669Z,67.76
2018-12-15T23:11:23.926Z,67.93
2018-12-15T23:13:53.194Z,68.23
2018-12-15T23:16:22.444Z,68.56
2018-12-15T23:18:51.707Z,68.59
2018-12-15T23:21:20.967Z,68.91
2018-12-15T23:23:50.241Z,69.04
2018-12-15T23:26:19.495Z,69.29
2018-12-15T23:28:48.759Z,69.50
2018-12-15T23:31:18.018Z,69.98
2018-12-15T23:33:47.291Z,69.61
2018-12-15T23:36:16.545Z,70.40
2018-12-15T23:38:45.812Z,70.66
2018-12-15T23:41:15.081Z,70.18
2018-12-15T23:43:44.359Z,70.99
2018-12-15T23:46:13.616Z,70.80
2018-12-15T23:48:42.862Z,71.06
2018-12-15T23:51:12.142Z,71.03
2018-12-15T23:53:41.389Z,71.15
2018-12-15T23:56:10.654Z,71.11
2018-12-15T23:58:39.940Z,70.82
